sensor_id;sensor_type;location;lat;lon;timestamp;P1;durP1;ratioP1;P2;durP2;ratioP2
29210;SDS011;16250;49.932;10.980;2023-12-20T00:02:06;44.92;;;34.45;;
29210;SDS011;16250;49.932;10.980;2023-12-20T00:04:32;41.63;;;34.40;;
29210;SDS011;16250;49.932;10.980;2023-12-20T00:06:57;43.50;;;32.47;;
29210;SDS011;16250;49.932;10.980;2023-12-20T00:09:22;45.78;;;35.33;;
29210;SDS011;16250;49.932;10.980;2023-12-20T00:11:48;46.20;;;36.05;;
29210;SDS011;16250;49.932;10.980;2023-12-20T00:14:13;51.88;;;36.10;;
29210;SDS011;16250;49.932;10.980;2023-12-20T00:16:38;47.22;;;33.75;;
29210;SDS011;16250;49.932;10.980;2023-12-20T00:19:04;43.67;;;34.03;;
29210;SDS011;16250;49.932;10.980;2023-12-20T00:21:29;38.35;;;32.20;;
29210;SDS011;16250;49.932;10.980;2023-12-20T00:23:55;44.78;;;33.78;;
29210;SDS011;16250;49.932;10.980;2023-12-20T00:26:20;41.85;;;32.03;;
29210;SDS011;16250;49.932;10.980;2023-12-20T00:28:45;46.65;;;34.65;;
29210;SDS011;16250;49.932;10.980;2023-12-20T00:31:11;38.50;;;31.25;;
29210;SDS011;16250;49.932;10.980;2023-12-20T00:33:36;34.33;;;27.17;;
29210;SDS011;16250;49.932;10.980;2023-12-20T00:36:01;37.00;;;29.88;;
29210;SDS011;16250;49.932;10.980;2023-12-20T00:38:27;42.70;;;32.30;;
29210;SDS011;16250;49.932;10.980;2023-12-20T00:40:52;39.53;;;30.58;;
29210;SDS011;16250;49.932;10.980;2023-12-20T00:43:18;41.67;;;31.73;;
29210;SDS011;16250;49.932;10.980;2023-12-20T00:45:43;38.50;;;30.58;;
29210;SDS011;16250;49.932;10.980;2023-12-20T00:48:08;34.70;;;28.13;;
29210;SDS011;16250;49.932;10.980;2023-12-20T00:50:34;36.67;;;28.83;;
29210;SDS011;16250;49.932;10.980;2023-12-20T00:52:59;38.88;;;30.23;;
29210;SDS011;16250;49.932;10.980;2023-12-20T00:55:24;37.63;;;29.98;;
29210;SDS011;16250;49.932;10.980;2023-12-20T00:57:50;33.17;;;27.35;;
29210;SDS011;16250;49.932;10.980;2023-12-20T01:00:15;39.30;;;27.67;;
29210;SDS011;16250;49.932;10.980;2023-12-20T01:02:41;29.55;;;24.67;;
29210;SDS011;16250;49.932;10.980;2023-12-20T01:05:06;24.67;;;20.83;;
29210;SDS011;16250;49.932;10.980;2023-12-20T01:07:32;30.60;;;24.25;;
29210;SDS011;16250;49.932;10.980;2023-12-20T01:09:57;28.67;;;21.27;;
29210;SDS011;16250;49.932;10.980;2023-12-20T01:12:23;31.58;;;23.95;;
29210;SDS011;16250;49.932;10.980;2023-12-20T01:14:48;20.02;;;17.58;;
29210;SDS011;16250;49.932;10.980;2023-12-20T01:17:14;23.73;;;19.50;;
29210;SDS011;16250;49.932;10.980;2023-12-20T01:19:39;22.92;;;19.35;;
29210;SDS011;16250;49.932;10.980;2023-12-20T01:22:04;23.08;;;19.70;;
29210;SDS011;16250;49.932;10.980;2023-12-20T01:24:30;21.92;;;18.30;;
29210;SDS011;16250;49.932;10.980;2023-12-20T01:26:55;18.80;;;16.17;;
29210;SDS011;16250;49.932;10.980;2023-12-20T01:29:21;16.25;;;13.90;;
29210;SDS011;16250;49.932;10.980;2023-12-20T01:31:47;20.60;;;16.45;;
29210;SDS011;16250;49.932;10.980;2023-12-20T01:34:12;18.70;;;16.35;;
29210;SDS011;16250;49.932;10.980;2023-12-20T01:36:37;17.33;;;15.52;;
29210;SDS011;16250;49.932;10.980;2023-12-20T01:39:03;17.80;;;15.07;;
29210;SDS011;16250;49.932;10.980;2023-12-20T01:41:29;16.63;;;14.55;;
29210;SDS011;16250;49.932;10.980;2023-12-20T01:43:54;17.17;;;13.75;;
29210;SDS011;16250;49.932;10.980;2023-12-20T01:46:19;15.68;;;13.73;;
29210;SDS011;16250;49.932;10.980;2023-12-20T01:48:45;14.13;;;12.68;;
29210;SDS011;16250;49.932;10.980;2023-12-20T01:51:11;14.70;;;13.07;;
29210;SDS011;16250;49.932;10.980;2023-12-20T01:53:36;14.35;;;12.85;;
29210;SDS011;16250;49.932;10.980;2023-12-20T01:56:02;13.23;;;11.75;;
29210;SDS011;16250;49.932;10.980;2023-12-20T01:58:27;15.40;;;13.00;;
29210;SDS011;16250;49.932;10.980;2023-12-20T02:00:53;12.13;;;10.93;;
29210;SDS011;16250;49.932;10.980;2023-12-20T02:03:19;11.45;;;10.25;;
29210;SDS011;16250;49.932;10.980;2023-12-20T02:05:45;12.73;;;10.75;;
29210;SDS011;16250;49.932;10.980;2023-12-20T02:08:11;11.80;;;10.60;;
29210;SDS011;16250;49.932;10.980;2023-12-20T02:10:36;11.93;;;9.63;;
29210;SDS011;16250;49.932;10.980;2023-12-20T02:13:02;11.57;;;10.38;;
29210;SDS011;16250;49.932;10.980;2023-12-20T02:15:27;10.35;;;9.15;;
29210;SDS011;16250;49.932;10.980;2023-12-20T02:17:52;9.13;;;8.23;;
29210;SDS011;16250;49.932;10.980;2023-12-20T02:20:18;9.45;;;8.55;;
29210;SDS011;16250;49.932;10.980;2023-12-20T02:22:44;9.00;;;8.20;;
29210;SDS011;16250;49.932;10.980;2023-12-20T02:25:09;9.68;;;8.68;;
29210;SDS011;16250;49.932;10.980;2023-12-20T02:27:34;7.97;;;7.28;;
29210;SDS011;16250;49.932;10.980;2023-12-20T02:30:00;8.32;;;7.63;;
29210;SDS011;16250;49.932;10.980;2023-12-20T02:32:25;8.35;;;7.50;;
29210;SDS011;16250;49.932;10.980;2023-12-20T02:34:51;8.73;;;7.82;;
29210;SDS011;16250;49.932;10.980;2023-12-20T02:37:17;8.80;;;7.93;;
29210;SDS011;16250;49.932;10.980;2023-12-20T02:39:42;8.30;;;7.50;;
29210;SDS011;16250;49.932;10.980;2023-12-20T02:42:07;8.80;;;7.78;;
29210;SDS011;16250;49.932;10.980;2023-12-20T02:44:33;8.82;;;7.93;;
29210;SDS011;16250;49.932;10.980;2023-12-20T02:46:59;9.80;;;8.80;;
29210;SDS011;16250;49.932;10.980;2023-12-20T02:49:24;8.80;;;7.47;;
29210;SDS011;16250;49.932;10.980;2023-12-20T02:51:49;9.18;;;8.27;;
29210;SDS011;16250;49.932;10.980;2023-12-20T02:54:15;7.57;;;6.88;;
29210;SDS011;16250;49.932;10.980;2023-12-20T02:56:40;9.27;;;7.10;;
29210;SDS011;16250;49.932;10.980;2023-12-20T02:59:06;8.13;;;7.15;;
29210;SDS011;16250;49.932;10.980;2023-12-20T03:01:33;7.97;;;6.97;;
29210;SDS011;16250;49.932;10.980;2023-12-20T03:03:59;7.70;;;6.78;;
29210;SDS011;16250;49.932;10.980;2023-12-20T03:06:25;7.57;;;6.88;;
29210;SDS011;16250;49.932;10.980;2023-12-20T03:08:50;7.97;;;6.70;;
29210;SDS011;16250;49.932;10.980;2023-12-20T03:11:15;7.45;;;6.75;;
29210;SDS011;16250;49.932;10.980;2023-12-20T03:13:41;7.22;;;6.63;;
29210;SDS011;16250;49.932;10.980;2023-12-20T03:16:10;8.82;;;7.35;;
29210;SDS011;16250;49.932;10.980;2023-12-20T03:18:35;7.82;;;6.03;;
29210;SDS011;16250;49.932;10.980;2023-12-20T03:21:01;7.68;;;6.97;;
29210;SDS011;16250;49.932;10.980;2023-12-20T03:23:26;6.90;;;6.28;;
29210;SDS011;16250;49.932;10.980;2023-12-20T03:25:52;6.00;;;5.40;;
29210;SDS011;16250;49.932;10.980;2023-12-20T03:28:17;6.10;;;5.50;;
29210;SDS011;16250;49.932;10.980;2023-12-20T03:30:43;4.60;;;4.20;;
29210;SDS011;16250;49.932;10.980;2023-12-20T03:33:09;5.88;;;4.47;;
29210;SDS011;16250;49.932;10.980;2023-12-20T03:35:34;4.88;;;4.45;;
29210;SDS011;16250;49.932;10.980;2023-12-20T03:37:59;5.15;;;4.75;;
29210;SDS011;16250;49.932;10.980;2023-12-20T03:40:25;4.25;;;3.83;;
29210;SDS011;16250;49.932;10.980;2023-12-20T03:42:51;4.30;;;3.88;;
29210;SDS011;16250;49.932;10.980;2023-12-20T03:45:16;4.32;;;3.92;;
29210;SDS011;16250;49.932;10.980;2023-12-20T03:47:41;3.80;;;3.50;;
29210;SDS011;16250;49.932;10.980;2023-12-20T03:50:07;4.32;;;3.97;;
29210;SDS011;16250;49.932;10.980;2023-12-20T03:52:32;3.67;;;3.30;;
29210;SDS011;16250;49.932;10.980;2023-12-20T03:54:58;3.63;;;3.33;;
29210;SDS011;16250;49.932;10.980;2023-12-20T03:57:23;4.30;;;3.90;;
29210;SDS011;16250;49.932;10.980;2023-12-20T03:59:48;2.95;;;2.75;;
29210;SDS011;16250;49.932;10.980;2023-12-20T04:02:14;3.33;;;3.03;;
29210;SDS011;16250;49.932;10.980;2023-12-20T04:04:39;3.70;;;3.40;;
29210;SDS011;16250;49.932;10.980;2023-12-20T04:07:04;3.53;;;3.22;;
29210;SDS011;16250;49.932;10.980;2023-12-20T04:09:30;2.95;;;2.75;;
29210;SDS011;16250;49.932;10.980;2023-12-20T04:11:55;3.35;;;3.05;;
29210;SDS011;16250;49.932;10.980;2023-12-20T04:14:20;3.15;;;2.95;;
29210;SDS011;16250;49.932;10.980;2023-12-20T04:16:46;3.05;;;2.85;;
29210;SDS011;16250;49.932;10.980;2023-12-20T04:19:11;2.40;;;2.30;;
29210;SDS011;16250;49.932;10.980;2023-12-20T04:21:36;2.60;;;2.40;;
29210;SDS011;16250;49.932;10.980;2023-12-20T04:24:02;3.35;;;3.15;;
29210;SDS011;16250;49.932;10.980;2023-12-20T04:26:27;5.72;;;4.35;;
29210;SDS011;16250;49.932;10.980;2023-12-20T04:28:54;2.95;;;2.75;;
29210;SDS011;16250;49.932;10.980;2023-12-20T04:31:19;4.22;;;3.92;;
29210;SDS011;16250;49.932;10.980;2023-12-20T04:33:45;2.65;;;2.45;;
29210;SDS011;16250;49.932;10.980;2023-12-20T04:36:10;3.33;;;2.80;;
29210;SDS011;16250;49.932;10.980;2023-12-20T04:38:36;3.42;;;3.20;;
29210;SDS011;16250;49.932;10.980;2023-12-20T04:41:01;3.25;;;2.90;;
29210;SDS011;16250;49.932;10.980;2023-12-20T04:43:27;2.90;;;2.70;;
29210;SDS011;16250;49.932;10.980;2023-12-20T04:45:53;2.90;;;2.70;;
29210;SDS011;16250;49.932;10.980;2023-12-20T04:48:18;2.72;;;2.53;;
29210;SDS011;16250;49.932;10.980;2023-12-20T04:50:44;3.30;;;3.08;;
29210;SDS011;16250;49.932;10.980;2023-12-20T04:53:09;3.15;;;2.85;;
29210;SDS011;16250;49.932;10.980;2023-12-20T04:55:35;3.13;;;2.83;;
29210;SDS011;16250;49.932;10.980;2023-12-20T04:58:00;3.67;;;3.38;;
29210;SDS011;16250;49.932;10.980;2023-12-20T05:00:25;3.60;;;3.40;;
29210;SDS011;16250;49.932;10.980;2023-12-20T05:02:51;4.35;;;3.40;;
29210;SDS011;16250;49.932;10.980;2023-12-20T05:05:17;3.30;;;3.10;;
29210;SDS011;16250;49.932;10.980;2023-12-20T05:07:43;3.40;;;3.20;;
29210;SDS011;16250;49.932;10.980;2023-12-20T05:10:08;3.20;;;3.00;;
29210;SDS011;16250;49.932;10.980;2023-12-20T05:12:34;4.20;;;3.90;;
29210;SDS011;16250;49.932;10.980;2023-12-20T05:14:59;3.80;;;3.45;;
29210;SDS011;16250;49.932;10.980;2023-12-20T05:17:25;4.22;;;3.85;;
29210;SDS011;16250;49.932;10.980;2023-12-20T05:19:50;4.25;;;3.95;;
29210;SDS011;16250;49.932;10.980;2023-12-20T05:22:16;4.70;;;4.25;;
29210;SDS011;16250;49.932;10.980;2023-12-20T05:24:42;35.40;;;30.70;;
29210;SDS011;16250;49.932;10.980;2023-12-20T05:27:07;27.63;;;21.60;;
29210;SDS011;16250;49.932;10.980;2023-12-20T05:29:32;10.88;;;9.82;;
29210;SDS011;16250;49.932;10.980;2023-12-20T05:31:58;54.20;;;46.40;;
29210;SDS011;16250;49.932;10.980;2023-12-20T05:34:24;53.85;;;49.20;;
29210;SDS011;16250;49.932;10.980;2023-12-20T05:36:49;7.78;;;7.25;;
29210;SDS011;16250;49.932;10.980;2023-12-20T05:39:14;10.23;;;9.52;;
29210;SDS011;16250;49.932;10.980;2023-12-20T05:41:40;9.77;;;9.18;;
29210;SDS011;16250;49.932;10.980;2023-12-20T05:44:05;9.30;;;8.60;;
29210;SDS011;16250;49.932;10.980;2023-12-20T05:46:31;9.23;;;8.55;;
29210;SDS011;16250;49.932;10.980;2023-12-20T05:48:56;6.90;;;6.40;;
29210;SDS011;16250;49.932;10.980;2023-12-20T05:51:21;8.73;;;8.02;;
29210;SDS011;16250;49.932;10.980;2023-12-20T05:53:47;9.40;;;8.70;;
29210;SDS011;16250;49.932;10.980;2023-12-20T05:56:14;8.63;;;7.95;;
29210;SDS011;16250;49.932;10.980;2023-12-20T05:58:40;9.93;;;9.23;;
29210;SDS011;16250;49.932;10.980;2023-12-20T06:01:06;7.90;;;7.25;;
29210;SDS011;16250;49.932;10.980;2023-12-20T06:03:33;10.07;;;9.15;;
29210;SDS011;16250;49.932;10.980;2023-12-20T06:05:58;8.32;;;7.53;;
29210;SDS011;16250;49.932;10.980;2023-12-20T06:08:25;8.18;;;7.57;;
29210;SDS011;16250;49.932;10.980;2023-12-20T06:10:51;13.65;;;12.65;;
29210;SDS011;16250;49.932;10.980;2023-12-20T06:13:16;9.18;;;8.45;;
29210;SDS011;16250;49.932;10.980;2023-12-20T06:15:42;8.05;;;7.45;;
29210;SDS011;16250;49.932;10.980;2023-12-20T06:18:07;13.38;;;12.15;;
29210;SDS011;16250;49.932;10.980;2023-12-20T06:20:32;9.38;;;8.63;;
29210;SDS011;16250;49.932;10.980;2023-12-20T06:22:58;9.80;;;9.00;;
29210;SDS011;16250;49.932;10.980;2023-12-20T06:25:23;9.88;;;9.07;;
29210;SDS011;16250;49.932;10.980;2023-12-20T06:27:49;11.25;;;10.15;;
29210;SDS011;16250;49.932;10.980;2023-12-20T06:30:15;13.02;;;11.85;;
29210;SDS011;16250;49.932;10.980;2023-12-20T06:32:41;12.52;;;11.40;;
29210;SDS011;16250;49.932;10.980;2023-12-20T06:35:07;11.68;;;10.63;;
29210;SDS011;16250;49.932;10.980;2023-12-20T06:37:33;9.82;;;8.93;;
29210;SDS011;16250;49.932;10.980;2023-12-20T06:39:59;9.75;;;8.85;;
29210;SDS011;16250;49.932;10.980;2023-12-20T06:42:24;11.45;;;10.45;;
29210;SDS011;16250;49.932;10.980;2023-12-20T06:44:49;10.85;;;9.93;;
29210;SDS011;16250;49.932;10.980;2023-12-20T06:47:15;9.25;;;8.45;;
29210;SDS011;16250;49.932;10.980;2023-12-20T06:49:40;9.20;;;8.30;;
29210;SDS011;16250;49.932;10.980;2023-12-20T06:52:06;11.50;;;10.10;;
29210;SDS011;16250;49.932;10.980;2023-12-20T06:54:31;9.80;;;8.85;;
29210;SDS011;16250;49.932;10.980;2023-12-20T06:56:59;8.93;;;8.10;;
29210;SDS011;16250;49.932;10.980;2023-12-20T06:59:24;8.95;;;8.20;;
29210;SDS011;16250;49.932;10.980;2023-12-20T07:01:50;8.43;;;7.53;;
29210;SDS011;16250;49.932;10.980;2023-12-20T07:04:16;8.55;;;7.57;;
29210;SDS011;16250;49.932;10.980;2023-12-20T07:06:45;8.65;;;7.80;;
29210;SDS011;16250;49.932;10.980;2023-12-20T07:09:10;8.88;;;8.00;;
29210;SDS011;16250;49.932;10.980;2023-12-20T07:11:38;7.93;;;7.22;;
29210;SDS011;16250;49.932;10.980;2023-12-20T07:14:03;8.77;;;7.97;;
29210;SDS011;16250;49.932;10.980;2023-12-20T07:16:29;8.80;;;8.00;;
29210;SDS011;16250;49.932;10.980;2023-12-20T07:18:54;8.50;;;7.50;;
29210;SDS011;16250;49.932;10.980;2023-12-20T07:21:21;8.95;;;7.88;;
29210;SDS011;16250;49.932;10.980;2023-12-20T07:23:46;9.23;;;8.40;;
29210;SDS011;16250;49.932;10.980;2023-12-20T07:26:12;9.25;;;8.45;;
29210;SDS011;16250;49.932;10.980;2023-12-20T07:28:37;9.13;;;8.32;;
29210;SDS011;16250;49.932;10.980;2023-12-20T07:31:02;9.40;;;8.50;;
29210;SDS011;16250;49.932;10.980;2023-12-20T07:33:28;10.55;;;9.55;;
29210;SDS011;16250;49.932;10.980;2023-12-20T07:35:53;10.05;;;9.18;;
29210;SDS011;16250;49.932;10.980;2023-12-20T07:38:18;11.25;;;10.15;;
29210;SDS011;16250;49.932;10.980;2023-12-20T07:40:44;13.15;;;10.77;;
29210;SDS011;16250;49.932;10.980;2023-12-20T07:43:09;10.27;;;9.27;;
29210;SDS011;16250;49.932;10.980;2023-12-20T07:45:35;10.80;;;9.70;;
29210;SDS011;16250;49.932;10.980;2023-12-20T07:48:00;12.25;;;10.68;;
29210;SDS011;16250;49.932;10.980;2023-12-20T07:50:26;11.82;;;10.65;;
29210;SDS011;16250;49.932;10.980;2023-12-20T07:52:52;11.02;;;9.93;;
29210;SDS011;16250;49.932;10.980;2023-12-20T07:55:18;11.25;;;10.15;;
29210;SDS011;16250;49.932;10.980;2023-12-20T07:57:43;11.68;;;10.50;;
29210;SDS011;16250;49.932;10.980;2023-12-20T08:00:09;13.05;;;10.93;;
29210;SDS011;16250;49.932;10.980;2023-12-20T08:02:35;12.35;;;11.13;;
29210;SDS011;16250;49.932;10.980;2023-12-20T08:05:00;12.88;;;11.57;;
29210;SDS011;16250;49.932;10.980;2023-12-20T08:07:25;11.23;;;10.05;;
29210;SDS011;16250;49.932;10.980;2023-12-20T08:09:51;11.65;;;9.88;;
29210;SDS011;16250;49.932;10.980;2023-12-20T08:12:17;11.82;;;10.73;;
29210;SDS011;16250;49.932;10.980;2023-12-20T08:14:42;12.05;;;10.82;;
29210;SDS011;16250;49.932;10.980;2023-12-20T08:17:07;11.40;;;10.30;;
29210;SDS011;16250;49.932;10.980;2023-12-20T08:19:33;10.63;;;9.63;;
29210;SDS011;16250;49.932;10.980;2023-12-20T08:21:58;11.50;;;10.38;;
29210;SDS011;16250;49.932;10.980;2023-12-20T08:24:23;10.40;;;9.38;;
29210;SDS011;16250;49.932;10.980;2023-12-20T08:26:49;8.73;;;8.00;;
29210;SDS011;16250;49.932;10.980;2023-12-20T08:29:14;10.38;;;9.48;;
29210;SDS011;16250;49.932;10.980;2023-12-20T08:31:39;9.15;;;8.35;;
29210;SDS011;16250;49.932;10.980;2023-12-20T08:34:05;9.00;;;8.10;;
29210;SDS011;16250;49.932;10.980;2023-12-20T08:36:30;8.73;;;8.02;;
29210;SDS011;16250;49.932;10.980;2023-12-20T08:38:56;8.60;;;7.90;;
29210;SDS011;16250;49.932;10.980;2023-12-20T08:41:21;9.50;;;8.70;;
29210;SDS011;16250;49.932;10.980;2023-12-20T08:43:46;8.70;;;7.90;;
29210;SDS011;16250;49.932;10.980;2023-12-20T08:46:13;9.65;;;8.85;;
29210;SDS011;16250;49.932;10.980;2023-12-20T08:48:39;9.02;;;8.13;;
29210;SDS011;16250;49.932;10.980;2023-12-20T08:51:04;8.90;;;8.10;;
29210;SDS011;16250;49.932;10.980;2023-12-20T08:53:32;7.40;;;6.80;;
29210;SDS011;16250;49.932;10.980;2023-12-20T08:55:58;7.47;;;6.60;;
29210;SDS011;16250;49.932;10.980;2023-12-20T08:58:26;7.25;;;6.55;;
29210;SDS011;16250;49.932;10.980;2023-12-20T09:00:51;10.10;;;6.60;;
29210;SDS011;16250;49.932;10.980;2023-12-20T09:03:17;7.00;;;6.30;;
29210;SDS011;16250;49.932;10.980;2023-12-20T09:05:42;6.53;;;5.93;;
29210;SDS011;16250;49.932;10.980;2023-12-20T09:08:07;7.25;;;5.63;;
29210;SDS011;16250;49.932;10.980;2023-12-20T09:10:35;6.20;;;5.60;;
29210;SDS011;16250;49.932;10.980;2023-12-20T09:13:00;6.80;;;6.10;;
29210;SDS011;16250;49.932;10.980;2023-12-20T09:15:26;6.47;;;4.95;;
29210;SDS011;16250;49.932;10.980;2023-12-20T09:17:52;7.85;;;5.15;;
29210;SDS011;16250;49.932;10.980;2023-12-20T09:20:17;7.93;;;4.78;;
29210;SDS011;16250;49.932;10.980;2023-12-20T09:22:43;5.40;;;4.20;;
29210;SDS011;16250;49.932;10.980;2023-12-20T09:25:09;8.65;;;4.75;;
29210;SDS011;16250;49.932;10.980;2023-12-20T09:27:35;5.97;;;3.95;;
29210;SDS011;16250;49.932;10.980;2023-12-20T09:30:00;5.45;;;4.28;;
29210;SDS011;16250;49.932;10.980;2023-12-20T09:32:26;9.40;;;4.45;;
29210;SDS011;16250;49.932;10.980;2023-12-20T09:34:51;6.22;;;4.15;;
29210;SDS011;16250;49.932;10.980;2023-12-20T09:37:16;9.60;;;4.05;;
29210;SDS011;16250;49.932;10.980;2023-12-20T09:39:42;8.85;;;3.92;;
29210;SDS011;16250;49.932;10.980;2023-12-20T09:42:07;5.72;;;3.70;;
29210;SDS011;16250;49.932;10.980;2023-12-20T09:44:33;6.70;;;3.83;;
29210;SDS011;16250;49.932;10.980;2023-12-20T09:47:02;7.30;;;4.20;;
29210;SDS011;16250;49.932;10.980;2023-12-20T09:49:29;6.05;;;4.30;;
29210;SDS011;16250;49.932;10.980;2023-12-20T09:51:55;4.70;;;3.70;;
29210;SDS011;16250;49.932;10.980;2023-12-20T09:54:21;6.25;;;3.72;;
29210;SDS011;16250;49.932;10.980;2023-12-20T09:56:47;6.45;;;4.20;;
29210;SDS011;16250;49.932;10.980;2023-12-20T09:59:13;7.13;;;4.07;;
29210;SDS011;16250;49.932;10.980;2023-12-20T10:01:40;6.03;;;3.58;;
29210;SDS011;16250;49.932;10.980;2023-12-20T10:04:06;7.60;;;3.70;;
29210;SDS011;16250;49.932;10.980;2023-12-20T10:06:34;6.32;;;3.35;;
29210;SDS011;16250;49.932;10.980;2023-12-20T10:09:09;7.20;;;3.65;;
29210;SDS011;16250;49.932;10.980;2023-12-20T10:11:38;9.98;;;3.40;;
29210;SDS011;16250;49.932;10.980;2023-12-20T10:14:04;6.63;;;3.38;;
29210;SDS011;16250;49.932;10.980;2023-12-20T10:16:30;7.07;;;3.42;;
29210;SDS011;16250;49.932;10.980;2023-12-20T10:18:56;6.85;;;3.20;;
29210;SDS011;16250;49.932;10.980;2023-12-20T10:21:22;7.97;;;3.47;;
29210;SDS011;16250;49.932;10.980;2023-12-20T10:23:48;7.00;;;3.60;;
29210;SDS011;16250;49.932;10.980;2023-12-20T10:26:25;5.75;;;3.40;;
29210;SDS011;16250;49.932;10.980;2023-12-20T10:28:51;9.40;;;4.10;;
29210;SDS011;16250;49.932;10.980;2023-12-20T10:31:31;7.43;;;3.33;;
29210;SDS011;16250;49.932;10.980;2023-12-20T10:33:58;6.72;;;3.53;;
29210;SDS011;16250;49.932;10.980;2023-12-20T10:36:25;7.50;;;3.10;;
29210;SDS011;16250;49.932;10.980;2023-12-20T10:38:52;5.43;;;3.25;;
29210;SDS011;16250;49.932;10.980;2023-12-20T10:41:18;8.18;;;3.63;;
29210;SDS011;16250;49.932;10.980;2023-12-20T10:43:56;7.80;;;3.72;;
29210;SDS011;16250;49.932;10.980;2023-12-20T10:46:24;7.45;;;3.42;;
29210;SDS011;16250;49.932;10.980;2023-12-20T10:48:51;8.10;;;3.13;;
29210;SDS011;16250;49.932;10.980;2023-12-20T10:51:18;7.72;;;3.60;;
29210;SDS011;16250;49.932;10.980;2023-12-20T10:53:46;8.27;;;3.13;;
29210;SDS011;16250;49.932;10.980;2023-12-20T10:56:12;8.50;;;3.10;;
29210;SDS011;16250;49.932;10.980;2023-12-20T10:58:41;9.55;;;3.60;;
29210;SDS011;16250;49.932;10.980;2023-12-20T11:01:10;9.82;;;3.08;;
29210;SDS011;16250;49.932;10.980;2023-12-20T11:03:37;6.45;;;3.10;;
29210;SDS011;16250;49.932;10.980;2023-12-20T11:06:07;8.30;;;3.10;;
29210;SDS011;16250;49.932;10.980;2023-12-20T11:11:53;7.72;;;3.55;;
29210;SDS011;16250;49.932;10.980;2023-12-20T11:14:32;7.57;;;3.25;;
29210;SDS011;16250;49.932;10.980;2023-12-20T11:17:07;7.03;;;2.83;;
29210;SDS011;16250;49.932;10.980;2023-12-20T11:19:35;6.72;;;3.00;;
29210;SDS011;16250;49.932;10.980;2023-12-20T11:22:01;7.10;;;2.88;;
29210;SDS011;16250;49.932;10.980;2023-12-20T11:24:29;7.07;;;3.33;;
29210;SDS011;16250;49.932;10.980;2023-12-20T11:26:56;6.97;;;2.90;;
29210;SDS011;16250;49.932;10.980;2023-12-20T11:29:34;5.90;;;3.03;;
29210;SDS011;16250;49.932;10.980;2023-12-20T11:32:01;5.13;;;3.08;;
29210;SDS011;16250;49.932;10.980;2023-12-20T11:34:28;7.68;;;3.17;;
29210;SDS011;16250;49.932;10.980;2023-12-20T11:36:58;6.65;;;2.90;;
29210;SDS011;16250;49.932;10.980;2023-12-20T11:39:25;10.45;;;3.08;;
29210;SDS011;16250;49.932;10.980;2023-12-20T11:41:53;8.18;;;3.38;;
29210;SDS011;16250;49.932;10.980;2023-12-20T11:44:19;8.70;;;3.30;;
29210;SDS011;16250;49.932;10.980;2023-12-20T11:46:45;8.85;;;3.17;;
29210;SDS011;16250;49.932;10.980;2023-12-20T11:49:11;8.45;;;3.72;;
29210;SDS011;16250;49.932;10.980;2023-12-20T11:51:40;7.38;;;3.20;;
29210;SDS011;16250;49.932;10.980;2023-12-20T11:54:06;5.60;;;2.83;;
29210;SDS011;16250;49.932;10.980;2023-12-20T11:56:31;4.60;;;2.67;;
29210;SDS011;16250;49.932;10.980;2023-12-20T11:58:57;8.13;;;2.75;;
29210;SDS011;16250;49.932;10.980;2023-12-20T12:01:22;6.80;;;2.65;;
29210;SDS011;16250;49.932;10.980;2023-12-20T12:03:47;7.32;;;3.20;;
29210;SDS011;16250;49.932;10.980;2023-12-20T12:06:13;5.45;;;2.70;;
29210;SDS011;16250;49.932;10.980;2023-12-20T12:08:38;7.60;;;2.90;;
29210;SDS011;16250;49.932;10.980;2023-12-20T12:11:04;6.88;;;3.20;;
29210;SDS011;16250;49.932;10.980;2023-12-20T12:13:29;6.45;;;3.17;;
29210;SDS011;16250;49.932;10.980;2023-12-20T12:15:55;6.80;;;2.75;;
29210;SDS011;16250;49.932;10.980;2023-12-20T12:18:20;13.90;;;3.00;;
29210;SDS011;16250;49.932;10.980;2023-12-20T12:20:46;7.47;;;2.72;;
29210;SDS011;16250;49.932;10.980;2023-12-20T12:23:11;7.65;;;2.88;;
29210;SDS011;16250;49.932;10.980;2023-12-20T12:25:36;6.10;;;2.60;;
29210;SDS011;16250;49.932;10.980;2023-12-20T12:28:02;5.38;;;2.83;;
29210;SDS011;16250;49.932;10.980;2023-12-20T12:30:28;7.90;;;3.42;;
29210;SDS011;16250;49.932;10.980;2023-12-20T12:32:55;5.90;;;2.65;;
29210;SDS011;16250;49.932;10.980;2023-12-20T12:35:21;8.20;;;2.83;;
29210;SDS011;16250;49.932;10.980;2023-12-20T12:37:46;9.43;;;3.05;;
29210;SDS011;16250;49.932;10.980;2023-12-20T12:40:12;7.97;;;4.05;;
29210;SDS011;16250;49.932;10.980;2023-12-20T12:42:39;8.65;;;4.15;;
29210;SDS011;16250;49.932;10.980;2023-12-20T12:45:05;7.28;;;3.90;;
29210;SDS011;16250;49.932;10.980;2023-12-20T12:47:31;6.82;;;3.60;;
29210;SDS011;16250;49.932;10.980;2023-12-20T12:49:57;6.32;;;4.00;;
29210;SDS011;16250;49.932;10.980;2023-12-20T12:52:22;8.77;;;4.28;;
29210;SDS011;16250;49.932;10.980;2023-12-20T12:54:47;8.23;;;3.90;;
29210;SDS011;16250;49.932;10.980;2023-12-20T12:57:14;9.65;;;3.90;;
29210;SDS011;16250;49.932;10.980;2023-12-20T12:59:40;9.20;;;3.90;;
29210;SDS011;16250;49.932;10.980;2023-12-20T13:02:06;7.60;;;3.92;;
29210;SDS011;16250;49.932;10.980;2023-12-20T13:04:31;8.32;;;3.65;;
29210;SDS011;16250;49.932;10.980;2023-12-20T13:06:56;9.23;;;3.92;;
29210;SDS011;16250;49.932;10.980;2023-12-20T13:09:23;10.80;;;3.88;;
29210;SDS011;16250;49.932;10.980;2023-12-20T13:11:48;9.35;;;4.00;;
29210;SDS011;16250;49.932;10.980;2023-12-20T13:14:14;7.57;;;3.40;;
29210;SDS011;16250;49.932;10.980;2023-12-20T13:16:41;9.38;;;3.78;;
29210;SDS011;16250;49.932;10.980;2023-12-20T13:19:07;7.32;;;3.35;;
29210;SDS011;16250;49.932;10.980;2023-12-20T13:21:33;7.97;;;3.72;;
29210;SDS011;16250;49.932;10.980;2023-12-20T13:23:58;9.30;;;3.50;;
29210;SDS011;16250;49.932;10.980;2023-12-20T13:26:24;13.30;;;3.97;;
29210;SDS011;16250;49.932;10.980;2023-12-20T13:28:49;7.43;;;3.45;;
29210;SDS011;16250;49.932;10.980;2023-12-20T13:31:15;7.75;;;3.58;;
29210;SDS011;16250;49.932;10.980;2023-12-20T13:33:40;7.95;;;3.72;;
29210;SDS011;16250;49.932;10.980;2023-12-20T13:36:06;8.55;;;3.80;;
29210;SDS011;16250;49.932;10.980;2023-12-20T13:38:31;6.13;;;3.03;;
29210;SDS011;16250;49.932;10.980;2023-12-20T13:40:57;11.20;;;3.65;;
29210;SDS011;16250;49.932;10.980;2023-12-20T13:43:24;6.88;;;3.30;;
29210;SDS011;16250;49.932;10.980;2023-12-20T13:45:49;8.27;;;3.08;;
29210;SDS011;16250;49.932;10.980;2023-12-20T13:48:15;8.45;;;3.42;;
29210;SDS011;16250;49.932;10.980;2023-12-20T13:50:41;8.35;;;3.30;;
29210;SDS011;16250;49.932;10.980;2023-12-20T13:53:06;7.80;;;3.22;;
29210;SDS011;16250;49.932;10.980;2023-12-20T13:55:32;8.23;;;3.10;;
29210;SDS011;16250;49.932;10.980;2023-12-20T13:57:57;7.93;;;3.10;;
29210;SDS011;16250;49.932;10.980;2023-12-20T14:00:22;7.00;;;2.97;;
29210;SDS011;16250;49.932;10.980;2023-12-20T14:02:48;8.60;;;3.10;;
29210;SDS011;16250;49.932;10.980;2023-12-20T14:05:14;8.13;;;3.55;;
29210;SDS011;16250;49.932;10.980;2023-12-20T14:07:42;7.80;;;3.03;;
29210;SDS011;16250;49.932;10.980;2023-12-20T14:10:10;6.80;;;3.10;;
29210;SDS011;16250;49.932;10.980;2023-12-20T14:12:37;7.22;;;3.20;;
29210;SDS011;16250;49.932;10.980;2023-12-20T14:15:03;7.03;;;2.97;;
29210;SDS011;16250;49.932;10.980;2023-12-20T14:17:29;6.15;;;3.10;;
29210;SDS011;16250;49.932;10.980;2023-12-20T14:19:54;11.15;;;3.70;;
29210;SDS011;16250;49.932;10.980;2023-12-20T14:22:20;5.93;;;2.97;;
29210;SDS011;16250;49.932;10.980;2023-12-20T14:24:45;5.78;;;2.97;;